createdAt,value
2023-02-24T00:00:32.172Z,100527.03
2023-02-24T00:03:06.273Z,100529.97
2023-02-24T00:05:37.088Z,100528.31
2023-02-24T00:08:06.910Z,100525.94
2023-02-24T00:10:37.488Z,100525.94
2023-02-24T00:13:05.664Z,100518.75
2023-02-24T00:15:33.693Z,100519.63
2023-02-24T00:18:06.947Z,100519.31
2023-02-24T00:20:35.685Z,100525.81
2023-02-24T00:23:03.924Z,100514.13
2023-02-24T00:25:33.300Z,100520.06
2023-02-24T00:28:01.633Z,100522.75
2023-02-24T00:30:31.482Z,100514.00
2023-02-24T00:33:01.347Z,100513.91
2023-02-24T00:35:30.311Z,100513.06
2023-02-24T00:37:58.177Z,100506.03
2023-02-24T00:40:26.664Z,100498.28
2023-02-24T00:42:55.954Z,100508.00
2023-02-24T00:45:23.892Z,100508.00
2023-02-24T00:47:51.817Z,100505.75
2023-02-24T00:50:20.057Z,100504.53
2023-02-24T00:52:49.821Z,100508.44
2023-02-24T00:55:19.202Z,100510.56
2023-02-24T00:57:47.119Z,100505.78
2023-02-24T01:00:19.940Z,100503.81
2023-02-24T01:02:47.866Z,100501.00
2023-02-24T01:05:16.052Z,100503.97
2023-02-24T01:07:43.921Z,100493.00
2023-02-24T01:10:13.433Z,100505.78
2023-02-24T01:12:49.745Z,100490.31
2023-02-24T01:15:22.444Z,100498.44
2023-02-24T01:17:50.516Z,100498.88
2023-02-24T01:20:19.415Z,100505.75
2023-02-24T01:22:50.185Z,100498.41
2023-02-24T01:25:20.265Z,100497.97
2023-02-24T01:27:48.555Z,100506.81
2023-02-24T01:30:18.169Z,100506.66
2023-02-24T01:32:48.320Z,100495.81
2023-02-24T01:35:17.785Z,100495.94
2023-02-24T01:37:46.295Z,100495.66
2023-02-24T01:40:20.962Z,100494.94
2023-02-24T01:42:49.734Z,100487.47
2023-02-24T01:45:28.614Z,100496.03
2023-02-24T01:48:05.231Z,100489.09
2023-02-24T01:50:35.996Z,100479.16
2023-02-24T01:53:07.544Z,100486.19
2023-02-24T01:55:42.831Z,100482.69
2023-02-24T01:58:22.590Z,100475.88
2023-02-24T02:00:51.623Z,100479.06
2023-02-24T02:03:29.634Z,100473.97
2023-02-24T02:06:04.740Z,100471.44
2023-02-24T02:08:36.411Z,100473.44
2023-02-24T02:11:07.935Z,100471.03
2023-02-24T02:13:40.498Z,100475.16
2023-02-24T02:16:35.610Z,100462.34
2023-02-24T02:19:30.876Z,100467.06
2023-02-24T02:22:23.429Z,100463.31
2023-02-24T02:25:01.896Z,100458.94
2023-02-24T02:27:58.409Z,100458.63
2023-02-24T02:31:16.850Z,100451.81
2023-02-24T02:34:27.593Z,100457.06
2023-02-24T02:37:06.004Z,100457.31
2023-02-24T02:39:50.552Z,100457.31
2023-02-24T02:42:30.593Z,100457.41
2023-02-24T02:45:07.800Z,100457.00
2023-02-24T02:47:43.252Z,100452.97
2023-02-24T02:50:22.543Z,100448.59
2023-02-24T02:52:57.011Z,100444.59
2023-02-24T02:55:36.217Z,100449.47
2023-02-24T02:58:10.273Z,100445.97
2023-02-24T03:00:50.008Z,100446.34
2023-02-24T03:03:20.400Z,100445.13
2023-02-24T03:05:58.760Z,100451.06
2023-02-24T03:08:34.266Z,100441.09
2023-02-24T03:11:05.822Z,100442.81
2023-02-24T03:13:41.440Z,100447.38
2023-02-24T03:16:13.469Z,100426.53
2023-02-24T03:18:50.884Z,100440.56
2023-02-24T03:21:33.921Z,100428.16
2023-02-24T03:24:05.632Z,100427.34
2023-02-24T03:26:41.732Z,100423.09
2023-02-24T03:29:18.586Z,100421.28
2023-02-24T03:31:54.135Z,100421.88
2023-02-24T03:34:31.060Z,100424.53
2023-02-24T03:37:01.911Z,100414.34
2023-02-24T03:39:30.072Z,100410.69
2023-02-24T03:42:05.435Z,100408.56
2023-02-24T03:44:34.049Z,100400.81
2023-02-24T03:47:03.407Z,100400.56
2023-02-24T03:49:32.124Z,100394.13
2023-02-24T03:52:21.376Z,100390.06
2023-02-24T03:55:21.374Z,100396.22
2023-02-24T03:58:10.238Z,100381.50
2023-02-24T04:00:52.189Z,100392.31
2023-02-24T04:03:34.237Z,100384.59
2023-02-24T04:06:14.165Z,100381.09
2023-02-24T04:08:53.113Z,100382.19
2023-02-24T04:11:30.050Z,100380.63
2023-02-24T04:14:07.397Z,100367.00
2023-02-24T04:16:43.070Z,100372.25
2023-02-24T04:19:16.956Z,100370.56
2023-02-24T04:21:49.032Z,100370.94
2023-02-24T04:24:24.873Z,100366.09
2023-02-24T04:26:58.849Z,100363.53
2023-02-24T04:29:35.445Z,100356.72
2023-02-24T04:32:08.871Z,100352.06
2023-02-24T04:34:37.447Z,100343.69
2023-02-24T04:37:05.470Z,100348.72
2023-02-24T04:39:38.355Z,100346.91
2023-02-24T04:42:07.318Z,100346.47
2023-02-24T04:44:36.063Z,100342.00
2023-02-24T04:47:04.791Z,100330.78
2023-02-24T04:49:33.932Z,100334.38
2023-02-24T04:52:01.803Z,100327.84
2023-02-24T04:54:29.720Z,100324.50
2023-02-24T04:56:59.473Z,100327.44
2023-02-24T04:59:29.248Z,100318.56
2023-02-24T05:02:01.371Z,100315.31
2023-02-24T05:04:31.851Z,100312.38
2023-02-24T05:07:00.239Z,100306.75
2023-02-24T05:09:30.098Z,100306.94
2023-02-24T05:12:00.272Z,100299.47
2023-02-24T05:14:28.401Z,100302.88
2023-02-24T05:17:00.213Z,100289.72
2023-02-24T05:19:46.218Z,100290.00
2023-02-24T05:22:16.885Z,100285.38
2023-02-24T05:24:47.889Z,100281.84
2023-02-24T05:27:17.382Z,100286.03
2023-02-24T05:29:45.782Z,100291.56
2023-02-24T05:32:16.250Z,100284.81
2023-02-24T05:34:44.298Z,100277.31
2023-02-24T05:37:16.553Z,100275.78
2023-02-24T05:39:44.526Z,100272.84
2023-02-24T05:42:12.787Z,100268.22
2023-02-24T05:44:42.093Z,100267.22
2023-02-24T05:47:10.525Z,100267.53
2023-02-24T05:49:38.925Z,100267.38
2023-02-24T05:52:09.568Z,100264.16
2023-02-24T05:54:42.037Z,100267.22
2023-02-24T05:57:13.414Z,100259.41
2023-02-24T05:59:44.746Z,100256.75
2023-02-24T06:02:15.289Z,100255.41
2023-02-24T06:04:50.989Z,100259.22
2023-02-24T06:07:22.805Z,100258.81
2023-02-24T06:09:54.618Z,100248.72
2023-02-24T06:12:24.625Z,100245.34
2023-02-24T06:14:54.032Z,100241.47
2023-02-24T06:17:24.317Z,100237.66
2023-02-24T06:19:54.277Z,100238.53
2023-02-24T06:22:25.452Z,100237.41
2023-02-24T06:24:56.794Z,100226.88
2023-02-24T06:27:25.777Z,100231.84
2023-02-24T06:29:57.560Z,100231.41
2023-02-24T06:32:27.970Z,100230.00
2023-02-24T06:34:57.419Z,100224.66
2023-02-24T06:37:25.631Z,100224.09
2023-02-24T06:39:53.559Z,100221.06
2023-02-24T06:42:21.511Z,100214.03
2023-02-24T06:44:50.322Z,100210.41
2023-02-24T06:47:19.681Z,100207.91
2023-02-24T06:49:47.835Z,100212.13
2023-02-24T06:52:18.773Z,100196.16
2023-02-24T06:54:52.340Z,100200.63
2023-02-24T06:57:20.648Z,100206.09
2023-02-24T06:59:48.909Z,100196.44
2023-02-24T07:02:17.593Z,100196.69
2023-02-24T07:04:47.493Z,100195.56
2023-02-24T07:07:17.211Z,100196.81
2023-02-24T07:09:45.295Z,100192.16
2023-02-24T07:12:15.554Z,100184.75
2023-02-24T07:14:43.937Z,100193.16
2023-02-24T07:17:14.677Z,100184.34
2023-02-24T07:19:42.583Z,100179.84
2023-02-24T07:22:14.600Z,100184.50
2023-02-24T07:24:46.195Z,100174.84
2023-02-24T07:27:23.136Z,100173.56
2023-02-24T07:29:53.651Z,100166.44
2023-02-24T07:32:23.387Z,100167.53
2023-02-24T07:34:51.401Z,100160.31
2023-02-24T07:37:21.024Z,100156.38
2023-02-24T07:39:48.983Z,100148.41
2023-02-24T07:42:17.229Z,100146.28
2023-02-24T07:44:46.429Z,100140.78
2023-02-24T07:47:15.802Z,100130.69
2023-02-24T07:49:45.514Z,100132.41
2023-02-24T07:52:13.478Z,100119.78
2023-02-24T07:54:43.141Z,100120.78
2023-02-24T07:57:13.680Z,100109.56
2023-02-24T07:59:45.441Z,100110.97
2023-02-24T08:02:13.870Z,100103.41
2023-02-24T08:04:49.795Z,100094.13
2023-02-24T08:07:17.928Z,100092.75
2023-02-24T08:10:04.031Z,100088.81
2023-02-24T08:12:34.811Z,100080.25
2023-02-24T08:15:08.816Z,100077.72
2023-02-24T08:17:36.801Z,100071.97
2023-02-24T08:20:24.790Z,100072.28
2023-02-24T08:22:55.085Z,100059.22
2023-02-24T08:25:35.471Z,100060.47
2023-02-24T08:28:09.385Z,100057.22
2023-02-24T08:30:44.701Z,100052.19
2023-02-24T08:33:17.415Z,100052.06
2023-02-24T08:35:45.624Z,100043.34
2023-02-24T08:38:17.293Z,100046.28
2023-02-24T08:40:54.884Z,100036.88
2023-02-24T08:43:34.291Z,100035.13
2023-02-24T08:46:18.276Z,100035.22
2023-02-24T08:48:49.554Z,100031.97
2023-02-24T08:51:23.743Z,100037.50
2023-02-24T08:53:54.737Z,100030.88
2023-02-24T08:56:28.210Z,100026.03
2023-02-24T08:59:05.327Z,100009.84
2023-02-24T09:01:38.070Z,100012.63
2023-02-24T09:04:10.393Z,100011.09
2023-02-24T09:06:44.766Z,100005.72
2023-02-24T09:09:18.701Z,99995.34
2023-02-24T09:11:50.785Z,99992.06
2023-02-24T09:14:29.120Z,99989.00
2023-02-24T09:17:06.035Z,99979.09
2023-02-24T09:19:57.865Z,99973.63
2023-02-24T09:22:57.239Z,99976.59
2023-02-24T09:25:40.614Z,99960.06
2023-02-24T09:28:17.084Z,99966.28
2023-02-24T09:30:54.502Z,99955.91
2023-02-24T09:33:26.208Z,99964.06
2023-02-24T09:36:09.749Z,99950.66
2023-02-24T09:38:53.142Z,99946.72
2023-02-24T09:41:33.796Z,99949.81
2023-02-24T09:44:18.300Z,99945.06
2023-02-24T09:46:54.766Z,99943.31
2023-02-24T09:49:39.752Z,99935.50
2023-02-24T09:52:17.410Z,99935.53
2023-02-24T09:55:17.543Z,99927.31
2023-02-24T09:58:26.938Z,99919.53
2023-02-24T10:01:21.960Z,99923.97
2023-02-24T10:04:18.312Z,99912.53
2023-02-24T10:06:51.510Z,99919.31
2023-02-24T10:09:26.804Z,99905.59
2023-02-24T10:12:04.476Z,99905.81
2023-02-24T10:14:44.723Z,99899.97
2023-02-24T10:17:30.480Z,99901.00
2023-02-24T10:20:02.400Z,99897.97
2023-02-24T10:22:50.440Z,99896.44
2023-02-24T10:25:41.092Z,99892.09
2023-02-24T10:28:35.577Z,99879.06
2023-02-24T10:31:25.433Z,99882.66
2023-02-24T10:34:06.071Z,99894.75
2023-02-24T10:36:36.274Z,99883.41
2023-02-24T10:39:16.380Z,99878.41
2023-02-24T10:41:47.950Z,99884.41
2023-02-24T10:44:24.060Z,99880.66
2023-02-24T10:47:12.307Z,99873.56
2023-02-24T10:49:57.011Z,99865.00
2023-02-24T10:52:37.679Z,99863.00
2023-02-24T10:55:27.917Z,99847.44
2023-02-24T10:58:06.874Z,99849.56
2023-02-24T11:01:01.119Z,99847.66
2023-02-24T11:03:42.609Z,99835.13
2023-02-24T11:06:42.259Z,99834.47
2023-02-24T11:09:35.233Z,99831.00
2023-02-24T11:12:32.925Z,99813.88
2023-02-24T11:15:22.766Z,99814.78
2023-02-24T11:18:01.834Z,99806.41
2023-02-24T11:20:48.449Z,99809.66
2023-02-24T11:23:24.913Z,99797.03
2023-02-24T11:25:59.274Z,99786.53
2023-02-24T11:28:54.163Z,99780.13
2023-02-24T11:31:44.769Z,99764.63
2023-02-24T11:34:29.022Z,99772.56
2023-02-24T11:37:15.613Z,99772.00
2023-02-24T11:39:57.283Z,99758.16
2023-02-24T11:42:33.904Z,99753.97
2023-02-24T11:45:13.136Z,99748.50
2023-02-24T11:47:54.233Z,99743.34
2023-02-24T11:50:43.680Z,99739.81
2023-02-24T11:53:21.302Z,99739.00
2023-02-24T11:55:59.772Z,99719.28
2023-02-24T11:58:41.886Z,99721.38
2023-02-24T12:01:22.385Z,99724.16
2023-02-24T12:03:57.877Z,99714.53
2023-02-24T12:06:35.299Z,99701.09
2023-02-24T12:09:15.918Z,99695.34
2023-02-24T12:11:56.029Z,99695.78
2023-02-24T12:14:34.924Z,99704.19
2023-02-24T12:17:18.271Z,99690.56
2023-02-24T12:19:59.689Z,99681.63
2023-02-24T12:22:39.956Z,99674.31
2023-02-24T12:25:14.873Z,99678.56
2023-02-24T12:28:02.990Z,99674.06
2023-02-24T12:30:51.840Z,99664.31
2023-02-24T12:33:43.893Z,99662.91
2023-02-24T12:36:30.910Z,99670.03
2023-02-24T12:39:13.517Z,99657.59
2023-02-24T12:42:08.473Z,99634.81
2023-02-24T12:44:54.824Z,99637.78
2023-02-24T12:47:43.036Z,99626.88
2023-02-24T12:50:32.217Z,99621.72
2023-02-24T12:53:18.747Z,99615.09
2023-02-24T12:56:02.532Z,99612.06
2023-02-24T12:58:36.996Z,99605.78
2023-02-24T13:01:23.455Z,99605.53
2023-02-24T13:04:26.931Z,99591.25
2023-02-24T13:07:11.065Z,99589.28
2023-02-24T13:09:52.260Z,99586.19
2023-02-24T13:12:33.735Z,99583.28
2023-02-24T13:15:04.451Z,99577.41
2023-02-24T13:17:33.793Z,99570.72
2023-02-24T13:20:15.407Z,99570.28
2023-02-24T13:22:44.622Z,99562.31
2023-02-24T13:25:23.575Z,99566.09
2023-02-24T13:28:04.586Z,99556.00
2023-02-24T13:30:39.913Z,99563.00
2023-02-24T13:33:26.144Z,99547.16
2023-02-24T13:36:12.621Z,99555.03
2023-02-24T13:38:43.874Z,99540.44
2023-02-24T13:41:40.543Z,99542.94
2023-02-24T13:44:28.820Z,99535.53
2023-02-24T13:47:50.268Z,99528.38
2023-02-24T13:50:28.008Z,99525.16
2023-02-24T13:53:28.070Z,99528.50
2023-02-24T13:56:17.968Z,99514.53
2023-02-24T13:59:09.301Z,99503.72
2023-02-24T14:01:50.910Z,99505.13
2023-02-24T14:04:26.416Z,99492.34
2023-02-24T14:07:02.608Z,99497.81
2023-02-24T14:09:38.434Z,99486.06
2023-02-24T14:12:15.059Z,99492.91
2023-02-24T14:14:45.638Z,99478.34
2023-02-24T14:17:28.221Z,99484.66
2023-02-24T14:20:08.575Z,99477.84
2023-02-24T14:22:45.164Z,99477.47
2023-02-24T14:25:15.688Z,99475.44
2023-02-24T14:27:46.966Z,99468.97
2023-02-24T14:30:26.825Z,99475.38
2023-02-24T14:32:55.650Z,99464.56
2023-02-24T14:35:33.762Z,99464.25
2023-02-24T14:38:04.255Z,99465.53
2023-02-24T14:40:33.402Z,99468.88
2023-02-24T14:43:03.600Z,99462.72
2023-02-24T14:45:31.530Z,99456.03
2023-02-24T14:47:59.477Z,99446.19
2023-02-24T14:50:34.059Z,99442.25
2023-02-24T14:53:13.272Z,99451.91
2023-02-24T14:55:48.012Z,99446.88
2023-02-24T14:58:23.929Z,99450.50
2023-02-24T15:00:59.661Z,99435.66
2023-02-24T15:03:33.711Z,99433.38
2023-02-24T15:06:07.788Z,99427.25
2023-02-24T15:08:40.851Z,99417.19
2023-02-24T15:11:21.827Z,99411.28
2023-02-24T15:13:55.146Z,99414.44
2023-02-24T15:16:28.447Z,99418.03
2023-02-24T15:19:01.243Z,99397.88
2023-02-24T15:21:32.940Z,99394.84
2023-02-24T15:24:05.661Z,99393.72
2023-02-24T15:26:36.152Z,99379.97
2023-02-24T15:29:15.619Z,99372.69
2023-02-24T15:31:48.403Z,99367.97
2023-02-24T15:34:21.974Z,99368.09
2023-02-24T15:36:55.372Z,99356.19
2023-02-24T15:39:31.087Z,99362.94
2023-02-24T15:42:09.461Z,99359.91
2023-02-24T15:44:38.177Z,99352.94
2023-02-24T15:47:23.434Z,99348.44
2023-02-24T15:49:51.367Z,99337.22
2023-02-24T15:52:27.256Z,99334.41
2023-02-24T15:55:00.428Z,99333.00
2023-02-24T15:57:32.436Z,99331.91
2023-02-24T16:00:01.255Z,99328.06
2023-02-24T16:02:29.757Z,99330.34
2023-02-24T16:04:57.717Z,99329.53
2023-02-24T16:07:31.928Z,99322.69
2023-02-24T16:10:02.887Z,99318.28
2023-02-24T16:12:36.384Z,99315.72
2023-02-24T16:15:14.625Z,99312.00
2023-02-24T16:17:43.972Z,99306.91
2023-02-24T16:20:16.069Z,99304.19
2023-02-24T16:22:44.180Z,99306.59
2023-02-24T16:25:17.307Z,99304.16
2023-02-24T16:27:45.454Z,99289.75
2023-02-24T16:30:21.420Z,99287.69
2023-02-24T16:32:50.578Z,99284.34
2023-02-24T16:35:18.758Z,99283.44
2023-02-24T16:37:48.514Z,99280.59
2023-02-24T16:40:23.529Z,99284.97
2023-02-24T16:42:53.764Z,99287.31
2023-02-24T16:45:22.500Z,99284.81
2023-02-24T16:47:51.126Z,99280.00
2023-02-24T16:50:24.664Z,99281.50
2023-02-24T16:52:52.645Z,99272.72
2023-02-24T16:55:23.139Z,99277.81
2023-02-24T16:57:51.056Z,99275.81
2023-02-24T17:00:24.393Z,99271.88
2023-02-24T17:02:53.788Z,99264.38
2023-02-24T17:05:25.423Z,99264.66
2023-02-24T17:07:57.174Z,99263.75
2023-02-24T17:10:27.146Z,99275.75
2023-02-24T17:12:55.071Z,99263.06
2023-02-24T17:15:25.494Z,99262.25
2023-02-24T17:17:53.586Z,99260.50
2023-02-24T17:20:22.264Z,99248.16
2023-02-24T17:22:50.238Z,99254.47
2023-02-24T17:25:21.605Z,99248.63
2023-02-24T17:27:50.924Z,99240.97
2023-02-24T17:30:23.007Z,99241.56
2023-02-24T17:32:51.367Z,99240.19
2023-02-24T17:35:20.335Z,99245.06
2023-02-24T17:38:25.652Z,99236.69
2023-02-24T17:40:55.612Z,99234.50
2023-02-24T17:43:25.141Z,99226.03
2023-02-24T17:45:53.898Z,99221.94
2023-02-24T17:48:23.124Z,99223.91
2023-02-24T17:50:51.933Z,99220.44
2023-02-24T17:53:19.985Z,99214.97
2023-02-24T17:56:01.988Z,99207.97
2023-02-24T17:58:33.417Z,99209.50
2023-02-24T18:01:02.806Z,99199.53
2023-02-24T18:03:34.184Z,99199.69
2023-02-24T18:06:05.297Z,99195.03
2023-02-24T18:08:35.310Z,99191.25
2023-02-24T18:11:03.839Z,99188.47
2023-02-24T18:13:34.419Z,99177.81
2023-02-24T18:16:02.743Z,99180.19
2023-02-24T18:18:31.274Z,99179.31
2023-02-24T18:21:02.855Z,99187.66
2023-02-24T18:23:31.444Z,99181.84
2023-02-24T18:26:03.674Z,99181.59
2023-02-24T18:28:34.524Z,99176.84
2023-02-24T18:31:03.437Z,99173.72
2023-02-24T18:33:31.575Z,99169.56
2023-02-24T18:36:00.393Z,99162.13
2023-02-24T18:38:29.275Z,99156.13
2023-02-24T18:41:02.397Z,99157.63
2023-02-24T18:43:33.242Z,99153.47
2023-02-24T18:46:03.728Z,99159.28
2023-02-24T18:48:33.898Z,99161.31
2023-02-24T18:51:02.864Z,99148.50
2023-02-24T18:53:35.741Z,99151.50
2023-02-24T18:56:06.566Z,99151.84
2023-02-24T18:58:39.331Z,99144.00
2023-02-24T19:01:13.207Z,99142.66
2023-02-24T19:03:41.799Z,99139.22
2023-02-24T19:06:10.533Z,99139.50
2023-02-24T19:08:39.529Z,99135.88
2023-02-24T19:11:12.884Z,99132.38
2023-02-24T19:13:42.401Z,99133.72
2023-02-24T19:16:11.521Z,99123.75
2023-02-24T19:18:39.803Z,99113.94
2023-02-24T19:21:09.946Z,99122.25
2023-02-24T19:23:39.296Z,99107.81
2023-02-24T19:26:08.047Z,99105.16
2023-02-24T19:28:36.019Z,99103.00
2023-02-24T19:31:05.625Z,99103.16
2023-02-24T19:33:33.618Z,99093.31
2023-02-24T19:36:01.675Z,99092.13
2023-02-24T19:38:29.645Z,99095.00
2023-02-24T19:40:59.885Z,99090.16
2023-02-24T19:43:28.001Z,99095.47
2023-02-24T19:45:55.978Z,99090.97
2023-02-24T19:48:25.408Z,99084.19
2023-02-24T19:50:53.342Z,99079.69
2023-02-24T19:53:21.313Z,99078.88
2023-02-24T19:55:50.319Z,99079.69
2023-02-24T19:58:18.449Z,99081.03
2023-02-24T20:00:48.046Z,99078.88
2023-02-24T20:03:16.380Z,99064.91
2023-02-24T20:05:45.789Z,99056.56
2023-02-24T20:08:13.843Z,99060.59
2023-02-24T20:10:41.788Z,99067.28
2023-02-24T20:13:09.743Z,99064.59
2023-02-24T20:15:37.814Z,99060.47
2023-02-24T20:18:08.707Z,99055.31
2023-02-24T20:20:37.368Z,99059.13
2023-02-24T20:23:06.615Z,99052.97
2023-02-24T20:25:34.631Z,99051.81
2023-02-24T20:28:02.948Z,99064.94
2023-02-24T20:30:30.874Z,99067.78
2023-02-24T20:32:59.549Z,99063.97
2023-02-24T20:35:28.312Z,99057.97
2023-02-24T20:37:56.292Z,99055.31
2023-02-24T20:40:25.670Z,99048.97
2023-02-24T20:42:53.564Z,99046.31
2023-02-24T20:45:21.586Z,99043.66
2023-02-24T20:47:49.503Z,99042.13
2023-02-24T20:50:17.686Z,99043.81
2023-02-24T20:52:45.638Z,99030.31
2023-02-24T20:55:13.723Z,99029.00
2023-02-24T20:57:42.973Z,99029.84
2023-02-24T21:00:13.071Z,99027.00
2023-02-24T21:02:41.278Z,99020.00
2023-02-24T21:05:10.985Z,99016.88
2023-02-24T21:07:39.783Z,99000.72
2023-02-24T21:10:08.510Z,99009.84
2023-02-24T21:12:36.480Z,99008.22
2023-02-24T21:15:07.404Z,99005.03
2023-02-24T21:17:35.444Z,99008.38
2023-02-24T21:20:03.476Z,99007.88
2023-02-24T21:22:31.969Z,99000.72
2023-02-24T21:25:00.455Z,98999.56
2023-02-24T21:27:28.407Z,99001.56
2023-02-24T21:29:56.341Z,98990.06
2023-02-24T21:32:25.651Z,98991.56
2023-02-24T21:34:53.626Z,98994.22
2023-02-24T21:37:21.604Z,98987.75
2023-02-24T21:39:49.744Z,98984.75
2023-02-24T21:42:17.757Z,98985.09
2023-02-24T21:44:45.701Z,98978.63
2023-02-24T21:47:13.624Z,98974.25
2023-02-24T21:49:44.116Z,98974.78
2023-02-24T21:52:12.171Z,98974.78
2023-02-24T21:54:40.326Z,98964.81
2023-02-24T21:57:09.210Z,98969.28
2023-02-24T21:59:37.112Z,98966.44
2023-02-24T22:02:05.358Z,98957.63
2023-02-24T22:04:33.656Z,98953.13
2023-02-24T22:07:02.927Z,98953.81
2023-02-24T22:09:30.853Z,98951.16
2023-02-24T22:11:58.724Z,98944.13
2023-02-24T22:14:26.670Z,98949.81
2023-02-24T22:16:54.615Z,98945.31
2023-02-24T22:19:22.627Z,98938.81
2023-02-24T22:21:50.575Z,98938.19
2023-02-24T22:24:19.935Z,98939.50
2023-02-24T22:26:47.816Z,98942.31
2023-02-24T22:29:15.693Z,98942.50
2023-02-24T22:31:47.618Z,98936.50
2023-02-24T22:34:17.118Z,98934.84
2023-02-24T22:36:45.162Z,98932.69
2023-02-24T22:39:16.430Z,98934.50
2023-02-24T22:41:47.392Z,98932.50
2023-02-24T22:44:19.039Z,98931.16
2023-02-24T22:46:47.751Z,98927.50
2023-02-24T22:49:15.783Z,98928.50
2023-02-24T22:51:43.676Z,98930.00
2023-02-24T22:54:11.534Z,98931.00
2023-02-24T22:56:39.458Z,98917.69
2023-02-24T22:59:08.742Z,98918.19
2023-02-24T23:01:38.399Z,98921.84
2023-02-24T23:04:07.261Z,98919.00
2023-02-24T23:06:36.977Z,98927.31
2023-02-24T23:09:07.195Z,98918.34
2023-02-24T23:11:38.995Z,98915.38
2023-02-24T23:14:13.684Z,98915.88
2023-02-24T23:16:44.342Z,98910.19
2023-02-24T23:19:16.013Z,98907.69
2023-02-24T23:21:47.484Z,98907.88
2023-02-24T23:24:17.579Z,98905.53
2023-02-24T23:26:48.969Z,98911.69
2023-02-24T23:29:21.275Z,98910.53
2023-02-24T23:31:49.516Z,98914.19
2023-02-24T23:34:17.724Z,98910.69
2023-02-24T23:36:47.931Z,98915.53
2023-02-24T23:39:21.320Z,98909.69
2023-02-24T23:41:49.483Z,98906.38
2023-02-24T23:44:18.696Z,98910.03
2023-02-24T23:46:46.655Z,98903.88
2023-02-24T23:49:14.596Z,98905.06
2023-02-24T23:51:48.578Z,98897.91
2023-02-24T23:54:18.423Z,98899.25
2023-02-24T23:56:46.907Z,98893.44
2023-02-24T23:59:15.900Z,98886.44
